sensor_id;sensor_type;location;lat;lon;timestamp;pressure;altitude;pressure_sealevel;temperature;humidity
56414;BME280;42318;48.452;19.526;2024-01-27T00:01:16;98369.66;;;21.27;50.76
56414;BME280;42318;48.452;19.526;2024-01-27T00:04:20;98369.41;;;21.29;50.81
56414;BME280;42318;48.452;19.526;2024-01-27T00:07:21;98356.84;;;21.28;50.91
56414;BME280;42318;48.452;19.526;2024-01-27T00:10:22;98366.13;;;21.27;50.93
56414;BME280;42318;48.452;19.526;2024-01-27T00:13:23;98380.81;;;21.26;51.12
56414;BME280;42318;48.452;19.526;2024-01-27T00:16:23;98369.34;;;21.24;50.90
56414;BME280;42318;48.452;19.526;2024-01-27T00:19:24;98371.25;;;21.23;50.99
56414;BME280;42318;48.452;19.526;2024-01-27T00:22:24;98372.06;;;21.24;50.72
56414;BME280;42318;48.452;19.526;2024-01-27T00:25:25;98378.59;;;21.23;50.67
56414;BME280;42318;48.452;19.526;2024-01-27T00:28:26;98373.41;;;21.21;50.76
56414;BME280;42318;48.452;19.526;2024-01-27T00:31:27;98368.75;;;21.17;50.38
56414;BME280;42318;48.452;19.526;2024-01-27T00:34:27;98379.63;;;21.12;50.74
56414;BME280;42318;48.452;19.526;2024-01-27T00:37:28;98389.72;;;21.16;50.59
56414;BME280;42318;48.452;19.526;2024-01-27T00:40:29;98416.69;;;21.18;50.57
56414;BME280;42318;48.452;19.526;2024-01-27T00:43:29;98413.72;;;21.19;50.34
56414;BME280;42318;48.452;19.526;2024-01-27T00:46:30;98444.25;;;21.21;50.65
56414;BME280;42318;48.452;19.526;2024-01-27T00:49:31;98464.13;;;21.22;50.60
56414;BME280;42318;48.452;19.526;2024-01-27T00:52:31;98476.94;;;21.21;50.56
56414;BME280;42318;48.452;19.526;2024-01-27T00:55:32;98478.84;;;21.21;50.28
56414;BME280;42318;48.452;19.526;2024-01-27T00:58:33;98489.75;;;21.21;50.60
56414;BME280;42318;48.452;19.526;2024-01-27T01:01:34;98487.00;;;21.21;50.21
56414;BME280;42318;48.452;19.526;2024-01-27T01:04:35;98503.38;;;21.21;50.60
56414;BME280;42318;48.452;19.526;2024-01-27T01:07:35;98495.47;;;21.19;50.07
56414;BME280;42318;48.452;19.526;2024-01-27T01:10:36;98511.81;;;21.19;50.23
56414;BME280;42318;48.452;19.526;2024-01-27T01:13:37;98530.31;;;21.17;50.16
56414;BME280;42318;48.452;19.526;2024-01-27T01:16:37;98535.75;;;21.17;50.65
56414;BME280;42318;48.452;19.526;2024-01-27T01:19:38;98546.66;;;21.17;50.48
56414;BME280;42318;48.452;19.526;2024-01-27T01:22:39;98542.03;;;21.18;50.34
56414;BME280;42318;48.452;19.526;2024-01-27T01:25:40;98535.22;;;21.15;49.97
56414;BME280;42318;48.452;19.526;2024-01-27T01:28:40;98542.56;;;21.15;49.79
56414;BME280;42318;48.452;19.526;2024-01-27T01:31:43;98544.22;;;21.16;50.20
56414;BME280;42318;48.452;19.526;2024-01-27T01:34:45;98553.47;;;21.15;50.25
56414;BME280;42318;48.452;19.526;2024-01-27T01:37:46;98548.00;;;21.15;50.08
56414;BME280;42318;48.452;19.526;2024-01-27T01:40:48;98560.81;;;21.14;49.98
56414;BME280;42318;48.452;19.526;2024-01-27T01:43:49;98573.34;;;21.15;50.14
56414;BME280;42318;48.452;19.526;2024-01-27T01:46:49;98571.44;;;21.16;49.82
56414;BME280;42318;48.452;19.526;2024-01-27T01:49:50;98571.72;;;21.14;50.02
56414;BME280;42318;48.452;19.526;2024-01-27T01:52:51;98583.44;;;21.15;50.00
56414;BME280;42318;48.452;19.526;2024-01-27T01:55:53;98589.13;;;21.13;50.16
56414;BME280;42318;48.452;19.526;2024-01-27T01:58:54;98602.50;;;21.15;49.89
56414;BME280;42318;48.452;19.526;2024-01-27T02:01:55;98599.78;;;21.15;49.69
56414;BME280;42318;48.452;19.526;2024-01-27T02:04:56;98597.06;;;21.15;50.17
56414;BME280;42318;48.452;19.526;2024-01-27T02:07:57;98604.66;;;21.13;50.22
56414;BME280;42318;48.452;19.526;2024-01-27T02:11:00;98608.22;;;21.13;50.08
56414;BME280;42318;48.452;19.526;2024-01-27T02:14:03;98604.66;;;21.13;50.15
56414;BME280;42318;48.452;19.526;2024-01-27T02:17:04;98610.13;;;21.13;49.77
56414;BME280;42318;48.452;19.526;2024-01-27T02:20:06;98618.28;;;21.13;49.80
56414;BME280;42318;48.452;19.526;2024-01-27T02:23:07;98622.34;;;21.10;50.17
56414;BME280;42318;48.452;19.526;2024-01-27T02:26:08;98620.19;;;21.12;49.68
56414;BME280;42318;48.452;19.526;2024-01-27T02:29:09;98631.09;;;21.12;49.81
56414;BME280;42318;48.452;19.526;2024-01-27T02:32:09;98649.34;;;21.12;49.57
56414;BME280;42318;48.452;19.526;2024-01-27T02:35:10;98652.59;;;21.09;49.75
56414;BME280;42318;48.452;19.526;2024-01-27T02:38:11;98665.69;;;21.12;49.71
56414;BME280;42318;48.452;19.526;2024-01-27T02:41:11;98658.06;;;21.14;50.00
56414;BME280;42318;48.452;19.526;2024-01-27T02:44:12;98664.88;;;21.11;49.92
56414;BME280;42318;48.452;19.526;2024-01-27T02:47:13;98670.56;;;21.10;49.53
56414;BME280;42318;48.452;19.526;2024-01-27T02:50:14;98674.69;;;21.12;49.60
56414;BME280;42318;48.452;19.526;2024-01-27T02:53:15;98665.69;;;21.12;49.79
56414;BME280;42318;48.452;19.526;2024-01-27T02:56:16;98664.59;;;21.13;50.05
56414;BME280;42318;48.452;19.526;2024-01-27T02:59:17;98665.94;;;21.10;49.67
56414;BME280;42318;48.452;19.526;2024-01-27T03:02:18;98680.13;;;21.12;49.85
56414;BME280;42318;48.452;19.526;2024-01-27T03:05:18;98689.38;;;21.11;49.97
56414;BME280;42318;48.452;19.526;2024-01-27T03:08:20;98692.94;;;21.12;49.59
56414;BME280;42318;48.452;19.526;2024-01-27T03:11:21;98701.09;;;21.12;50.03
56414;BME280;42318;48.452;19.526;2024-01-27T03:14:22;98706.56;;;21.12;49.46
56414;BME280;42318;48.452;19.526;2024-01-27T03:17:22;98705.19;;;21.09;49.75
56414;BME280;42318;48.452;19.526;2024-01-27T03:20:23;98694.03;;;21.11;49.99
56414;BME280;42318;48.452;19.526;2024-01-27T03:23:24;98707.63;;;21.11;49.51
56414;BME280;42318;48.452;19.526;2024-01-27T03:26:24;98717.97;;;21.09;49.48
56414;BME280;42318;48.452;19.526;2024-01-27T03:29:25;98726.44;;;21.12;50.08
56414;BME280;42318;48.452;19.526;2024-01-27T03:32:26;98735.44;;;21.13;50.02
56414;BME280;42318;48.452;19.526;2024-01-27T03:35:26;98728.91;;;21.14;49.83
56414;BME280;42318;48.452;19.526;2024-01-27T03:38:27;98735.44;;;21.13;50.10
56414;BME280;42318;48.452;19.526;2024-01-27T03:41:28;98741.97;;;21.12;49.87
56414;BME280;42318;48.452;19.526;2024-01-27T03:44:28;98748.00;;;21.14;50.10
56414;BME280;42318;48.452;19.526;2024-01-27T03:47:29;98752.06;;;21.11;49.61
56414;BME280;42318;48.452;19.526;2024-01-27T03:50:30;98755.59;;;21.12;49.69
56414;BME280;42318;48.452;19.526;2024-01-27T03:53:30;98771.13;;;21.11;50.09
56414;BME280;42318;48.452;19.526;2024-01-27T03:56:31;98774.09;;;21.10;49.98
56414;BME280;42318;48.452;19.526;2024-01-27T03:59:31;98771.94;;;21.12;50.02
56414;BME280;42318;48.452;19.526;2024-01-27T04:02:32;98762.38;;;21.09;49.72
56414;BME280;42318;48.452;19.526;2024-01-27T04:05:33;98759.66;;;21.09;49.94
56414;BME280;42318;48.452;19.526;2024-01-27T04:08:33;98770.56;;;21.09;49.54
56414;BME280;42318;48.452;19.526;2024-01-27T04:11:35;98773.28;;;21.09;49.78
56414;BME280;42318;48.452;19.526;2024-01-27T04:14:36;98770.81;;;21.08;49.30
56414;BME280;42318;48.452;19.526;2024-01-27T04:17:37;98770.00;;;21.07;49.51
56414;BME280;42318;48.452;19.526;2024-01-27T04:20:38;98777.09;;;21.08;49.70
56414;BME280;42318;48.452;19.526;2024-01-27T04:23:39;98769.75;;;21.09;49.28
56414;BME280;42318;48.452;19.526;2024-01-27T04:26:40;98775.44;;;21.07;49.87
56414;BME280;42318;48.452;19.526;2024-01-27T04:29:40;98790.97;;;21.07;49.39
56414;BME280;42318;48.452;19.526;2024-01-27T04:32:42;98796.94;;;21.04;49.12
56414;BME280;42318;48.452;19.526;2024-01-27T04:35:42;98819.28;;;21.06;49.72
56414;BME280;42318;48.452;19.526;2024-01-27T04:38:43;98823.59;;;21.01;49.78
56414;BME280;42318;48.452;19.526;2024-01-27T04:41:44;98844.63;;;21.06;49.11
56414;BME280;42318;48.452;19.526;2024-01-27T04:44:44;98856.34;;;21.07;49.20
56414;BME280;42318;48.452;19.526;2024-01-27T04:47:45;98861.81;;;21.07;49.43
56414;BME280;42318;48.452;19.526;2024-01-27T04:50:46;98871.88;;;21.06;49.23
56414;BME280;42318;48.452;19.526;2024-01-27T04:53:46;98862.06;;;21.05;49.57
56414;BME280;42318;48.452;19.526;2024-01-27T04:56:47;98874.28;;;21.02;49.00
56414;BME280;42318;48.452;19.526;2024-01-27T04:59:48;98872.91;;;21.00;49.19
56414;BME280;42318;48.452;19.526;2024-01-27T05:02:49;98884.69;;;21.06;49.22
56414;BME280;42318;48.452;19.526;2024-01-27T05:05:49;98888.47;;;21.05;49.47
56414;BME280;42318;48.452;19.526;2024-01-27T05:08:50;98892.03;;;21.05;49.45
56414;BME280;42318;48.452;19.526;2024-01-27T05:11:51;98899.13;;;21.06;49.15
56414;BME280;42318;48.452;19.526;2024-01-27T05:14:55;98913.00;;;21.05;49.10
56414;BME280;42318;48.452;19.526;2024-01-27T05:17:55;98922.25;;;21.04;49.32
56414;BME280;42318;48.452;19.526;2024-01-27T05:20:56;98915.41;;;21.01;49.32
56414;BME280;42318;48.452;19.526;2024-01-27T05:23:57;98940.25;;;21.05;49.54
56414;BME280;42318;48.452;19.526;2024-01-27T05:26:58;98936.44;;;21.06;49.16
56414;BME280;42318;48.452;19.526;2024-01-27T05:29:58;98948.16;;;21.06;49.35
56414;BME280;42318;48.452;19.526;2024-01-27T05:32:59;98951.13;;;21.05;49.16
56414;BME280;42318;48.452;19.526;2024-01-27T05:35:59;98950.81;;;21.01;49.64
56414;BME280;42318;48.452;19.526;2024-01-27T05:39:02;98968.31;;;21.05;49.67
56414;BME280;42318;48.452;19.526;2024-01-27T05:42:04;98974.59;;;21.06;49.37
56414;BME280;42318;48.452;19.526;2024-01-27T05:45:06;98964.75;;;21.05;49.57
56414;BME280;42318;48.452;19.526;2024-01-27T05:48:07;98975.66;;;21.05;49.32
56414;BME280;42318;48.452;19.526;2024-01-27T05:51:08;98978.38;;;21.05;49.71
56414;BME280;42318;48.452;19.526;2024-01-27T05:54:08;98985.16;;;21.02;49.33
56414;BME280;42318;48.452;19.526;2024-01-27T05:57:10;98994.97;;;21.03;49.40
56414;BME280;42318;48.452;19.526;2024-01-27T06:00:11;99000.69;;;21.01;48.95
56414;BME280;42318;48.452;19.526;2024-01-27T06:03:12;99006.97;;;21.02;49.61
56414;BME280;42318;48.452;19.526;2024-01-27T06:06:13;99017.84;;;21.02;49.53
56414;BME280;42318;48.452;19.526;2024-01-27T06:09:14;99020.81;;;21.00;49.12
56414;BME280;42318;48.452;19.526;2024-01-27T06:12:14;99036.03;;;20.96;49.48
56414;BME280;42318;48.452;19.526;2024-01-27T06:15:16;99032.22;;;20.97;49.71
56414;BME280;42318;48.452;19.526;2024-01-27T06:18:16;99031.66;;;20.95;49.13
56414;BME280;42318;48.452;19.526;2024-01-27T06:21:17;99034.38;;;20.95;49.24
56414;BME280;42318;48.452;19.526;2024-01-27T06:24:18;99051.88;;;20.99;49.23
56414;BME280;42318;48.452;19.526;2024-01-27T06:27:18;99051.88;;;20.99;49.13
56414;BME280;42318;48.452;19.526;2024-01-27T06:30:19;99047.50;;;20.98;48.71
56414;BME280;42318;48.452;19.526;2024-01-27T06:33:20;99045.59;;;20.99;49.08
56414;BME280;42318;48.452;19.526;2024-01-27T06:36:21;99061.38;;;20.97;49.00
56414;BME280;42318;48.452;19.526;2024-01-27T06:39:25;99063.59;;;21.00;48.86
56414;BME280;42318;48.452;19.526;2024-01-27T06:42:25;99070.38;;;20.97;49.07
56414;BME280;42318;48.452;19.526;2024-01-27T06:45:27;99069.78;;;20.95;49.08
56414;BME280;42318;48.452;19.526;2024-01-27T06:48:27;99090.84;;;21.00;48.71
56414;BME280;42318;48.452;19.526;2024-01-27T06:51:28;99097.09;;;21.00;49.28
56414;BME280;42318;48.452;19.526;2024-01-27T06:54:31;99095.22;;;21.01;49.27
56414;BME280;42318;48.452;19.526;2024-01-27T06:57:32;99097.94;;;21.01;49.25
56414;BME280;42318;48.452;19.526;2024-01-27T07:00:32;99090.59;;;21.01;49.00
56414;BME280;42318;48.452;19.526;2024-01-27T07:03:33;99092.47;;;21.01;49.17
56414;BME280;42318;48.452;19.526;2024-01-27T07:06:33;99089.50;;;21.02;49.47
56414;BME280;42318;48.452;19.526;2024-01-27T07:09:34;99090.09;;;21.05;49.17
56414;BME280;42318;48.452;19.526;2024-01-27T07:12:36;99086.28;;;21.06;49.15
56414;BME280;42318;48.452;19.526;2024-01-27T07:15:37;99080.59;;;21.07;49.81
56414;BME280;42318;48.452;19.526;2024-01-27T07:18:38;99087.44;;;21.10;49.00
56414;BME280;42318;48.452;19.526;2024-01-27T07:21:39;99095.94;;;21.13;49.02
56414;BME280;42318;48.452;19.526;2024-01-27T07:24:39;99089.66;;;21.13;49.19
56414;BME280;42318;48.452;19.526;2024-01-27T07:27:40;99095.13;;;21.13;49.27
56414;BME280;42318;48.452;19.526;2024-01-27T07:30:40;99089.34;;;21.09;49.25
56414;BME280;42318;48.452;19.526;2024-01-27T07:33:41;99100.81;;;21.11;49.15
56414;BME280;42318;48.452;19.526;2024-01-27T07:36:42;99095.63;;;21.10;49.21
56414;BME280;42318;48.452;19.526;2024-01-27T07:39:42;99101.06;;;21.10;49.07
56414;BME280;42318;48.452;19.526;2024-01-27T07:42:43;99096.78;;;21.14;49.45
56414;BME280;42318;48.452;19.526;2024-01-27T07:45:44;99092.47;;;21.18;48.91
56414;BME280;42318;48.452;19.526;2024-01-27T07:48:45;99099.22;;;21.27;48.71
56414;BME280;42318;48.452;19.526;2024-01-27T07:51:46;99093.34;;;21.35;49.11
56414;BME280;42318;48.452;19.526;2024-01-27T07:54:46;99091.84;;;21.44;48.50
56414;BME280;42318;48.452;19.526;2024-01-27T07:57:47;99100.41;;;21.53;48.51
56414;BME280;42318;48.452;19.526;2024-01-27T08:00:48;99084.94;;;21.58;48.70
56414;BME280;42318;48.452;19.526;2024-01-27T08:03:48;99085.25;;;21.62;48.30
56414;BME280;42318;48.452;19.526;2024-01-27T08:06:50;99085.00;;;21.63;48.36
56414;BME280;42318;48.452;19.526;2024-01-27T08:09:51;99078.41;;;21.59;48.05
56414;BME280;42318;48.452;19.526;2024-01-27T08:12:51;99084.50;;;21.67;48.26
56414;BME280;42318;48.452;19.526;2024-01-27T08:15:52;99090.13;;;21.77;48.36
56414;BME280;42318;48.452;19.526;2024-01-27T08:18:53;99078.44;;;21.81;48.12
56414;BME280;42318;48.452;19.526;2024-01-27T08:21:53;99100.97;;;21.93;47.95
56414;BME280;42318;48.452;19.526;2024-01-27T08:24:54;99100.50;;;22.02;47.96
56414;BME280;42318;48.452;19.526;2024-01-27T08:27:55;99103.91;;;22.09;47.50
56414;BME280;42318;48.452;19.526;2024-01-27T08:30:55;99101.25;;;22.14;47.42
56414;BME280;42318;48.452;19.526;2024-01-27T08:33:56;99089.56;;;22.18;47.22
56414;BME280;42318;48.452;19.526;2024-01-27T08:37:01;99101.38;;;22.24;47.12
56414;BME280;42318;48.452;19.526;2024-01-27T08:40:03;99103.09;;;22.30;47.10
56414;BME280;42318;48.452;19.526;2024-01-27T08:43:04;99091.91;;;22.32;46.89
56414;BME280;42318;48.452;19.526;2024-01-27T08:46:06;99092.16;;;22.30;47.02
56414;BME280;42318;48.452;19.526;2024-01-27T08:49:11;99075.47;;;22.27;47.25
56414;BME280;42318;48.452;19.526;2024-01-27T08:52:12;99094.59;;;22.27;46.77
56414;BME280;42318;48.452;19.526;2024-01-27T08:55:12;99089.31;;;22.20;47.46
56414;BME280;42318;48.452;19.526;2024-01-27T08:58:13;99076.44;;;22.15;47.29
56414;BME280;42318;48.452;19.526;2024-01-27T09:01:15;99078.34;;;22.15;47.03
56414;BME280;42318;48.452;19.526;2024-01-27T09:04:16;99096.06;;;22.12;47.29
56414;BME280;42318;48.452;19.526;2024-01-27T09:07:17;99082.00;;;22.04;47.91
56414;BME280;42318;48.452;19.526;2024-01-27T09:10:18;99089.38;;;22.03;47.98
56414;BME280;42318;48.452;19.526;2024-01-27T09:13:19;99097.47;;;21.98;47.60
56414;BME280;42318;48.452;19.526;2024-01-27T09:16:21;99096.91;;;21.96;47.93
56414;BME280;42318;48.452;19.526;2024-01-27T09:19:21;99089.41;;;21.86;47.88
56414;BME280;42318;48.452;19.526;2024-01-27T09:22:22;99092.72;;;21.88;47.90
56414;BME280;42318;48.452;19.526;2024-01-27T09:25:23;99096.53;;;21.87;48.25
56414;BME280;42318;48.452;19.526;2024-01-27T09:28:25;99092.41;;;21.85;48.38
56414;BME280;42318;48.452;19.526;2024-01-27T09:31:26;99068.94;;;21.84;48.58
56414;BME280;42318;48.452;19.526;2024-01-27T09:34:27;99071.66;;;21.84;48.17
56414;BME280;42318;48.452;19.526;2024-01-27T09:37:27;99066.97;;;21.79;48.54
56414;BME280;42318;48.452;19.526;2024-01-27T09:40:28;99068.59;;;21.80;48.42
56414;BME280;42318;48.452;19.526;2024-01-27T09:43:29;99072.41;;;21.79;48.45
56414;BME280;42318;48.452;19.526;2024-01-27T09:46:32;99074.06;;;21.80;48.52
56414;BME280;42318;48.452;19.526;2024-01-27T09:49:33;99081.16;;;21.81;48.58
56414;BME280;42318;48.452;19.526;2024-01-27T09:52:34;99087.44;;;21.82;48.18
56414;BME280;42318;48.452;19.526;2024-01-27T09:55:35;99095.06;;;21.80;48.03
56414;BME280;42318;48.452;19.526;2024-01-27T09:58:36;99111.19;;;21.81;48.55
56414;BME280;42318;48.452;19.526;2024-01-27T10:01:38;99104.06;;;21.80;48.45
56414;BME280;42318;48.452;19.526;2024-01-27T10:04:40;99102.41;;;21.79;48.37
56414;BME280;42318;48.452;19.526;2024-01-27T10:07:41;99110.03;;;21.77;48.64
56414;BME280;42318;48.452;19.526;2024-01-27T10:10:42;99099.94;;;21.78;48.64
56414;BME280;42318;48.452;19.526;2024-01-27T10:13:43;99110.59;;;21.79;48.37
56414;BME280;42318;48.452;19.526;2024-01-27T10:16:44;99128.88;;;21.79;48.38
56414;BME280;42318;48.452;19.526;2024-01-27T10:19:45;99123.09;;;21.75;48.41
56414;BME280;42318;48.452;19.526;2024-01-27T10:22:46;99128.88;;;21.79;48.35
56414;BME280;42318;48.452;19.526;2024-01-27T10:25:48;99139.78;;;21.79;48.35
56414;BME280;42318;48.452;19.526;2024-01-27T10:28:54;99130.53;;;21.80;48.75
56414;BME280;42318;48.452;19.526;2024-01-27T10:31:55;99140.69;;;21.84;48.76
56414;BME280;42318;48.452;19.526;2024-01-27T10:35:06;99130.09;;;21.88;48.84
56414;BME280;42318;48.452;19.526;2024-01-27T10:38:09;99113.16;;;21.86;49.05
56414;BME280;42318;48.452;19.526;2024-01-27T10:41:10;99118.59;;;21.86;48.96
56414;BME280;42318;48.452;19.526;2024-01-27T10:44:14;99098.69;;;21.85;49.42
56414;BME280;42318;48.452;19.526;2024-01-27T10:47:16;99097.84;;;21.85;49.04
56414;BME280;42318;48.452;19.526;2024-01-27T10:50:20;99099.75;;;21.84;49.28
56414;BME280;42318;48.452;19.526;2024-01-27T10:53:24;99096.22;;;21.84;49.37
56414;BME280;42318;48.452;19.526;2024-01-27T10:56:24;99091.81;;;21.83;49.43
56414;BME280;42318;48.452;19.526;2024-01-27T10:59:27;99086.38;;;21.83;49.27
56414;BME280;42318;48.452;19.526;2024-01-27T11:02:34;99069.44;;;21.81;49.46
56414;BME280;42318;48.452;19.526;2024-01-27T11:05:35;99094.25;;;21.79;49.60
56414;BME280;42318;48.452;19.526;2024-01-27T11:08:38;99076.53;;;21.82;49.19
56414;BME280;42318;48.452;19.526;2024-01-27T11:11:40;99089.09;;;21.83;49.49
56414;BME280;42318;48.452;19.526;2024-01-27T11:14:42;99092.09;;;21.81;49.32
56414;BME280;42318;48.452;19.526;2024-01-27T11:17:42;99077.03;;;21.79;49.46
56414;BME280;42318;48.452;19.526;2024-01-27T11:20:44;99079.22;;;21.77;49.69
56414;BME280;42318;48.452;19.526;2024-01-27T11:23:45;99085.81;;;21.81;49.65
56414;BME280;42318;48.452;19.526;2024-01-27T11:26:47;99088.53;;;21.81;49.66
56414;BME280;42318;48.452;19.526;2024-01-27T11:29:48;99089.59;;;21.80;49.37
56414;BME280;42318;48.452;19.526;2024-01-27T11:32:49;99087.97;;;21.79;49.37
56414;BME280;42318;48.452;19.526;2024-01-27T11:36:02;99101.34;;;21.80;49.10
56414;BME280;42318;48.452;19.526;2024-01-27T11:39:04;99090.75;;;21.84;49.33
56414;BME280;42318;48.452;19.526;2024-01-27T11:42:10;99102.47;;;21.84;49.54
56414;BME280;42318;48.452;19.526;2024-01-27T11:45:13;99100.84;;;21.83;49.55
56414;BME280;42318;48.452;19.526;2024-01-27T11:48:14;99096.22;;;21.84;49.44
56414;BME280;42318;48.452;19.526;2024-01-27T11:51:15;99114.72;;;21.82;49.41
56414;BME280;42318;48.452;19.526;2024-01-27T11:54:16;99105.97;;;21.80;49.67
56414;BME280;42318;48.452;19.526;2024-01-27T11:57:16;99104.91;;;21.81;49.31
56414;BME280;42318;48.452;19.526;2024-01-27T12:00:17;99099.19;;;21.82;49.24
56414;BME280;42318;48.452;19.526;2024-01-27T12:03:17;99095.31;;;21.78;49.46
56414;BME280;42318;48.452;19.526;2024-01-27T12:06:19;99100.84;;;21.83;49.63
56414;BME280;42318;48.452;19.526;2024-01-27T12:09:20;99113.66;;;21.83;49.50
56414;BME280;42318;48.452;19.526;2024-01-27T12:12:20;99097.53;;;21.81;49.53
56414;BME280;42318;48.452;19.526;2024-01-27T12:15:21;99114.97;;;21.80;49.52
56414;BME280;42318;48.452;19.526;2024-01-27T12:18:22;99119.69;;;21.85;49.70
56414;BME280;42318;48.452;19.526;2024-01-27T12:21:22;99116.69;;;21.86;49.39
56414;BME280;42318;48.452;19.526;2024-01-27T12:24:24;99112.56;;;21.84;49.90
56414;BME280;42318;48.452;19.526;2024-01-27T12:27:25;99108.19;;;21.83;49.57
56414;BME280;42318;48.452;19.526;2024-01-27T12:30:26;99127.88;;;21.85;49.92
56414;BME280;42318;48.452;19.526;2024-01-27T12:33:28;99118.84;;;21.84;49.85
56414;BME280;42318;48.452;19.526;2024-01-27T12:36:29;99108.69;;;21.80;49.72
56414;BME280;42318;48.452;19.526;2024-01-27T12:39:30;99116.06;;;21.79;49.89
56414;BME280;42318;48.452;19.526;2024-01-27T12:42:32;99138.13;;;21.78;49.90
56414;BME280;42318;48.452;19.526;2024-01-27T12:45:32;99140.28;;;21.76;49.93
56414;BME280;42318;48.452;19.526;2024-01-27T12:48:35;99143.78;;;21.71;49.73
56414;BME280;42318;48.452;19.526;2024-01-27T12:51:36;99138.56;;;21.70;49.90
56414;BME280;42318;48.452;19.526;2024-01-27T12:54:36;99143.53;;;21.73;49.86
56414;BME280;42318;48.452;19.526;2024-01-27T12:57:37;99154.44;;;21.73;49.85
56414;BME280;42318;48.452;19.526;2024-01-27T13:00:40;99149.22;;;21.71;49.80
56414;BME280;42318;48.452;19.526;2024-01-27T13:03:41;99149.47;;;21.70;50.04
56414;BME280;42318;48.452;19.526;2024-01-27T13:06:41;99145.09;;;21.69;49.57
56414;BME280;42318;48.452;19.526;2024-01-27T13:09:42;99157.56;;;21.64;49.57
56414;BME280;42318;48.452;19.526;2024-01-27T13:12:43;99154.25;;;21.62;49.95
56414;BME280;42318;48.452;19.526;2024-01-27T13:15:45;99158.06;;;21.61;49.84
56414;BME280;42318;48.452;19.526;2024-01-27T13:18:46;99161.88;;;21.60;49.77
56414;BME280;42318;48.452;19.526;2024-01-27T13:21:47;99156.91;;;21.57;49.61
56414;BME280;42318;48.452;19.526;2024-01-27T13:24:48;99165.34;;;21.56;49.13
56414;BME280;42318;48.452;19.526;2024-01-27T13:27:49;99159.06;;;21.55;49.46
56414;BME280;42318;48.452;19.526;2024-01-27T13:30:49;99160.38;;;21.53;49.61
56414;BME280;42318;48.452;19.526;2024-01-27T13:33:50;99159.00;;;21.50;49.45
56414;BME280;42318;48.452;19.526;2024-01-27T13:36:51;99170.72;;;21.51;49.41
56414;BME280;42318;48.452;19.526;2024-01-27T13:39:51;99172.63;;;21.50;49.64
56414;BME280;42318;48.452;19.526;2024-01-27T13:42:53;99183.53;;;21.50;49.45
56414;BME280;42318;48.452;19.526;2024-01-27T13:45:54;99179.72;;;21.51;49.57
56414;BME280;42318;48.452;19.526;2024-01-27T13:48:55;99181.06;;;21.49;49.35
56414;BME280;42318;48.452;19.526;2024-01-27T13:51:55;99171.22;;;21.48;48.94
56414;BME280;42318;48.452;19.526;2024-01-27T13:54:56;99182.13;;;21.48;49.40
56414;BME280;42318;48.452;19.526;2024-01-27T13:57:57;99181.31;;;21.47;49.74
56414;BME280;42318;48.452;19.526;2024-01-27T14:00:58;99200.38;;;21.47;49.45
56414;BME280;42318;48.452;19.526;2024-01-27T14:03:59;99204.19;;;21.46;49.40
56414;BME280;42318;48.452;19.526;2024-01-27T14:07:00;99218.88;;;21.45;49.62
56414;BME280;42318;48.452;19.526;2024-01-27T14:10:06;99223.75;;;21.43;49.87
56414;BME280;42318;48.452;19.526;2024-01-27T14:13:07;99214.75;;;21.43;49.26
56414;BME280;42318;48.452;19.526;2024-01-27T14:16:09;99222.69;;;21.44;49.56
56414;BME280;42318;48.452;19.526;2024-01-27T14:19:10;99229.47;;;21.42;49.68
56414;BME280;42318;48.452;19.526;2024-01-27T14:22:11;99224.25;;;21.40;49.19
56414;BME280;42318;48.452;19.526;2024-01-27T14:25:12;99230.78;;;21.39;49.56
56414;BME280;42318;48.452;19.526;2024-01-27T14:28:12;99231.88;;;21.38;49.65
56414;BME280;42318;48.452;19.526;2024-01-27T14:31:14;99229.97;;;21.39;49.57
56414;BME280;42318;48.452;19.526;2024-01-27T14:34:14;99240.03;;;21.38;49.25
56414;BME280;42318;48.452;19.526;2024-01-27T14:37:16;99239.22;;;21.38;49.15
56414;BME280;42318;48.452;19.526;2024-01-27T14:40:18;99231.53;;;21.35;49.08
56414;BME280;42318;48.452;19.526;2024-01-27T14:43:21;99221.44;;;21.35;49.53
56414;BME280;42318;48.452;19.526;2024-01-27T14:46:22;99207.81;;;21.35;49.10
56414;BME280;42318;48.452;19.526;2024-01-27T14:49:23;99200.13;;;21.32;49.63
56414;BME280;42318;48.452;19.526;2024-01-27T14:52:23;99188.75;;;21.35;49.42
56414;BME280;42318;48.452;19.526;2024-01-27T14:55:25;99188.16;;;21.33;49.26
56414;BME280;42318;48.452;19.526;2024-01-27T14:58:26;99189.31;;;21.37;49.09
56414;BME280;42318;48.452;19.526;2024-01-27T15:01:27;99201.06;;;21.38;49.40
56414;BME280;42318;48.452;19.526;2024-01-27T15:04:28;99204.59;;;21.38;49.37
56414;BME280;42318;48.452;19.526;2024-01-27T15:07:29;99201.63;;;21.40;49.37
56414;BME280;42318;48.452;19.526;2024-01-27T15:10:31;99210.63;;;21.40;49.21
56414;BME280;42318;48.452;19.526;2024-01-27T15:13:32;99213.34;;;21.40;49.06
56414;BME280;42318;48.452;19.526;2024-01-27T15:16:32;99222.38;;;21.41;49.08
56414;BME280;42318;48.452;19.526;2024-01-27T15:19:35;99237.31;;;21.38;49.15
56414;BME280;42318;48.452;19.526;2024-01-27T15:22:36;99241.94;;;21.38;49.03
56414;BME280;42318;48.452;19.526;2024-01-27T15:25:36;99245.50;;;21.38;49.28
56414;BME280;42318;48.452;19.526;2024-01-27T15:28:39;99249.88;;;21.39;49.41
56414;BME280;42318;48.452;19.526;2024-01-27T15:31:39;99250.94;;;21.38;49.36
56414;BME280;42318;48.452;19.526;2024-01-27T15:34:40;99254.25;;;21.40;49.44
56414;BME280;42318;48.452;19.526;2024-01-27T15:37:41;99267.31;;;21.38;49.51
56414;BME280;42318;48.452;19.526;2024-01-27T15:40:41;99274.91;;;21.36;49.18
56414;BME280;42318;48.452;19.526;2024-01-27T15:43:42;99286.97;;;21.40;49.51
56414;BME280;42318;48.452;19.526;2024-01-27T15:46:47;99305.47;;;21.38;49.15